Spirit Of New York — WCW9332 — position and weather

sailwx.info

Track history (hours):
 
Tides and Currents Weather Stations Pressure Air Temp Water Temp Dewpoint Dewpoint Depression Visibility Wind Speed Wind Dir Waves Ship Positions

Spirit Of New York

Owner: SPIRIT CRUISES LLC, NEW YORK, NY. More information available from US FCC via Universal Licensing System and Coast Guard Vessel Documentation Center.

Last reported at 2015-Aug-29 18:33 UTC. Time now 2015-Aug-29 18:57 UTC.
Position N 40°45' W 074°01'.

Length 62 m.

Type: Passenger vessel. MMSI: 338897000.

Date/timePositionNaut miles runAvg speedWind from/ knotsBaromVisibWave heightAir tempDewpointWater temp
2015-Aug-29 18:33N 40°45' W 074°01'1 1.5
2015-Aug-29 17:33N 40°43' W 074°01'2 1.5
2015-Aug-29 16:33N 40°42' W 074°02'3 0.4
2015-Aug-29 09:06N 40°45' W 074°01'0 0.0
2015-Aug-29 08:33N 40°45' W 074°01'1 1.0
2015-Aug-29 07:33N 40°44' W 074°01'2 2.2
2015-Aug-29 06:33N 40°42' W 073°59'4 3.7
2015-Aug-29 05:33N 40°46' W 074°00'1 1.0
2015-Aug-29 04:33N 40°45' W 074°01'0 0.2
2015-Aug-29 03:33N 40°45' W 074°01'0 0.0
2015-Aug-29 02:33N 40°45' W 074°01'0 0.0
2015-Aug-29 01:33N 40°45' W 074°01'3 3.3
2015-Aug-29 00:33N 40°42' W 074°02'4 4.2
2015-Aug-28 23:33N 40°46' W 074°00'1 0.9
2015-Aug-28 22:33N 40°45' W 074°01'0 0.0
2015-Aug-28 21:33N 40°45' W 074°01'0 0.0
2015-Aug-28 20:33N 40°45' W 074°01'0 0.0
2015-Aug-28 19:33N 40°45' W 074°01'0 0.0
2015-Aug-28 18:33N 40°45' W 074°01'2 1.7
2015-Aug-28 17:33N 40°43' W 074°01'2 1.6
2015-Aug-28 16:33N 40°42' W 074°02'3 3.3
2015-Aug-28 15:33N 40°45' W 074°01'0 0.0
2015-Aug-28 14:33N 40°45' W 074°01'0 0.0
2015-Aug-28 01:29N 40°45' W 074°01'4 3.9
2015-Aug-28 00:33N 40°41' W 074°02'4 3.6
2015-Aug-27 23:33N 40°45' W 074°01'0 0.0
2015-Aug-27 22:33N 40°45' W 074°01'0 0.0
2015-Aug-27 01:32N 40°45' W 074°01'4 3.8
2015-Aug-27 00:33N 40°41' W 074°02'5 4.7
2015-Aug-26 23:33N 40°46' W 074°01'1 1.0
2015-Aug-26 22:33N 40°45' W 074°01'0 0.0
2015-Aug-26 21:33N 40°45' W 074°01'0 0.0
2015-Aug-26 20:27N 40°45' W 074°01'0 0.0
2015-Aug-26 19:33N 40°45' W 074°01'1 0.8
2015-Aug-26 18:33N 40°46' W 074°01'2 1.9
2015-Aug-26 17:33N 40°44' W 074°01'1 1.2
2015-Aug-26 16:33N 40°43' W 074°02'3 3.1
2015-Aug-26 15:33N 40°46' W 074°01'1 0.1
2015-Aug-26 01:26N 40°45' W 074°01'4 4.2
2015-Aug-26 00:33N 40°41' W 074°02'4 4.1
2015-Aug-25 23:33N 40°45' W 074°01'1 0.5
2015-Aug-25 22:33N 40°45' W 074°01'1 0.0
2015-Aug-24 17:33N 40°44' W 074°01'0 0.3
2015-Aug-24 16:33N 40°44' W 074°01'1 1.2
2015-Aug-24 15:33N 40°45' W 074°01'0 0.0
2015-Aug-24 01:33N 40°45' W 074°01'4 3.7
2015-Aug-24 00:33N 40°41' W 074°02'4 3.8
2015-Aug-23 23:33N 40°45' W 074°01'1 0.5
2015-Aug-23 22:33N 40°45' W 074°01'1 0.2
2015-Aug-23 17:33N 40°44' W 074°01'2 1.7
2015-Aug-23 16:34N 40°43' W 074°02'3 2.5
2015-Aug-23 15:33N 40°45' W 074°01'1 0.1
2015-Aug-23 01:33N 40°44' W 074°01'2 1.7
2015-Aug-23 00:33N 40°42' W 074°00'4 3.8
2015-Aug-22 23:33N 40°46' W 074°00'1 0.2
2015-Aug-22 18:31N 40°45' W 074°01'1 1.1
2015-Aug-22 17:34N 40°44' W 074°01'1 0.7
2015-Aug-22 16:33N 40°43' W 074°02'2 1.8
2015-Aug-22 15:33N 40°45' W 074°01'0 0.0
2015-Aug-22 14:33N 40°45' W 074°01'0 0.0
2015-Aug-22 13:33N 40°45' W 074°01'0 0.0
2015-Aug-22 12:33N 40°45' W 074°01'0 0.0
2015-Aug-22 11:33N 40°45' W 074°01'0 0.0
2015-Aug-22 10:33N 40°45' W 074°01'0 0.0
2015-Aug-22 09:34N 40°45' W 074°01'0 0.0
2015-Aug-22 08:34N 40°45' W 074°01'0 0.0
2015-Aug-22 07:34N 40°45' W 074°01'0 0.0
2015-Aug-22 06:33N 40°45' W 074°01'0 0.0
2015-Aug-22 05:33N 40°45' W 074°01'0 0.0
2015-Aug-22 04:33N 40°45' W 074°01'0 0.0
2015-Aug-22 03:33N 40°45' W 074°01'0 0.0
2015-Aug-22 02:33N 40°45' W 074°01'0 0.0
2015-Aug-22 01:33N 40°45' W 074°01'4 4.1
2015-Aug-22 00:33N 40°41' W 074°02'5 5.3
2015-Aug-21 23:33N 40°46' W 074°00'1 1.2
2015-Aug-21 22:33N 40°45' W 074°01'0 0.0
2015-Aug-21 21:33N 40°45' W 074°01'0 0.0
2015-Aug-21 20:33N 40°45' W 074°01'0 0.0
2015-Aug-21 19:34N 40°45' W 074°01'1 0.8
2015-Aug-21 18:33N 40°46' W 074°01'0 0.4
2015-Aug-21 17:34N 40°45' W 074°01'2 2.0
2015-Aug-21 16:33N 40°44' W 074°01'2 2.1
2015-Aug-21 15:33N 40°46' W 074°01'1 0.8
2015-Aug-21 14:33N 40°45' W 074°01'0 0.0
2015-Aug-21 13:34N 40°45' W 074°01'0 0.0
2015-Aug-21 01:33N 40°45' W 074°01'4 3.7
2015-Aug-21 00:34N 40°41' W 074°02'4 4.2
2015-Aug-20 23:33N 40°46' W 074°01'1 0.8
2015-Aug-20 22:33N 40°45' W 074°01'0 0.0
2015-Aug-20 21:33N 40°45' W 074°01'0 0.0
2015-Aug-20 20:34N 40°45' W 074°01'0 0.0
2015-Aug-20 19:34N 40°45' W 074°01'0 0.0
2015-Aug-20 18:33N 40°45' W 074°01'1 0.8
2015-Aug-20 17:34N 40°44' W 074°01'2 1.9
2015-Aug-20 16:34N 40°42' W 074°02'3 3.2
2015-Aug-20 15:34N 40°46' W 074°01'1 0.0
2015-Aug-19 19:21N 40°45' W 074°01'1 1.0
2015-Aug-19 18:34N 40°46' W 074°01'  
Track history (hours):
 
Tides and Currents Weather Stations Pressure Air Temp Water Temp Dewpoint Dewpoint Depression Visibility Wind Speed Wind Dir Waves Ship Positions

Spirit Of New York

Owner: SPIRIT CRUISES LLC, NEW YORK, NY. More information available from US FCC via Universal Licensing System and Coast Guard Vessel Documentation Center.

Last reported at 2015-Aug-29 18:33 UTC. Time now 2015-Aug-29 18:57 UTC.
Position N 40°45' W 074°01'.

Length 62 m.

Type: Passenger vessel. MMSI: 338897000.

Date/timePositionNaut miles runAvg speedWind from/ knotsBaromVisibWave heightAir tempDewpointWater temp
2015-Aug-29 18:33N 40°45' W 074°01'1 1.5
2015-Aug-29 17:33N 40°43' W 074°01'2 1.5
2015-Aug-29 16:33N 40°42' W 074°02'3 0.4
2015-Aug-29 09:06N 40°45' W 074°01'0 0.0
2015-Aug-29 08:33N 40°45' W 074°01'1 1.0
2015-Aug-29 07:33N 40°44' W 074°01'2 2.2
2015-Aug-29 06:33N 40°42' W 073°59'4 3.7
2015-Aug-29 05:33N 40°46' W 074°00'1 1.0
2015-Aug-29 04:33N 40°45' W 074°01'0 0.2
2015-Aug-29 03:33N 40°45' W 074°01'0 0.0
2015-Aug-29 02:33N 40°45' W 074°01'0 0.0
2015-Aug-29 01:33N 40°45' W 074°01'3 3.3
2015-Aug-29 00:33N 40°42' W 074°02'4 4.2
2015-Aug-28 23:33N 40°46' W 074°00'1 0.9
2015-Aug-28 22:33N 40°45' W 074°01'0 0.0
2015-Aug-28 21:33N 40°45' W 074°01'0 0.0
2015-Aug-28 20:33N 40°45' W 074°01'0 0.0
2015-Aug-28 19:33N 40°45' W 074°01'0 0.0
2015-Aug-28 18:33N 40°45' W 074°01'2 1.7
2015-Aug-28 17:33N 40°43' W 074°01'2 1.6
2015-Aug-28 16:33N 40°42' W 074°02'3 3.3
2015-Aug-28 15:33N 40°45' W 074°01'0 0.0
2015-Aug-28 14:33N 40°45' W 074°01'0 0.0
2015-Aug-28 01:29N 40°45' W 074°01'4 3.9
2015-Aug-28 00:33N 40°41' W 074°02'4 3.6
2015-Aug-27 23:33N 40°45' W 074°01'0 0.0
2015-Aug-27 22:33N 40°45' W 074°01'0 0.0
2015-Aug-27 01:32N 40°45' W 074°01'4 3.8
2015-Aug-27 00:33N 40°41' W 074°02'5 4.7
2015-Aug-26 23:33N 40°46' W 074°01'1 1.0
2015-Aug-26 22:33N 40°45' W 074°01'0 0.0
2015-Aug-26 21:33N 40°45' W 074°01'0 0.0
2015-Aug-26 20:27N 40°45' W 074°01'0 0.0
2015-Aug-26 19:33N 40°45' W 074°01'1 0.8
2015-Aug-26 18:33N 40°46' W 074°01'2 1.9
2015-Aug-26 17:33N 40°44' W 074°01'1 1.2
2015-Aug-26 16:33N 40°43' W 074°02'3 3.1
2015-Aug-26 15:33N 40°46' W 074°01'1 0.1
2015-Aug-26 01:26N 40°45' W 074°01'4 4.2
2015-Aug-26 00:33N 40°41' W 074°02'4 4.1
2015-Aug-25 23:33N 40°45' W 074°01'1 0.5
2015-Aug-25 22:33N 40°45' W 074°01'1 0.0
2015-Aug-24 17:33N 40°44' W 074°01'0 0.3
2015-Aug-24 16:33N 40°44' W 074°01'1 1.2
2015-Aug-24 15:33N 40°45' W 074°01'0 0.0
2015-Aug-24 01:33N 40°45' W 074°01'4 3.7
2015-Aug-24 00:33N 40°41' W 074°02'4 3.8
2015-Aug-23 23:33N 40°45' W 074°01'1 0.5
2015-Aug-23 22:33N 40°45' W 074°01'1 0.2
2015-Aug-23 17:33N 40°44' W 074°01'2 1.7
2015-Aug-23 16:34N 40°43' W 074°02'3 2.5
2015-Aug-23 15:33N 40°45' W 074°01'1 0.1
2015-Aug-23 01:33N 40°44' W 074°01'2 1.7
2015-Aug-23 00:33N 40°42' W 074°00'4 3.8
2015-Aug-22 23:33N 40°46' W 074°00'1 0.2
2015-Aug-22 18:31N 40°45' W 074°01'1 1.1
2015-Aug-22 17:34N 40°44' W 074°01'1 0.7
2015-Aug-22 16:33N 40°43' W 074°02'2 1.8
2015-Aug-22 15:33N 40°45' W 074°01'0 0.0
2015-Aug-22 14:33N 40°45' W 074°01'0 0.0
2015-Aug-22 13:33N 40°45' W 074°01'0 0.0
2015-Aug-22 12:33N 40°45' W 074°01'0 0.0
2015-Aug-22 11:33N 40°45' W 074°01'0 0.0
2015-Aug-22 10:33N 40°45' W 074°01'0 0.0
2015-Aug-22 09:34N 40°45' W 074°01'0 0.0
2015-Aug-22 08:34N 40°45' W 074°01'0 0.0
2015-Aug-22 07:34N 40°45' W 074°01'0 0.0
2015-Aug-22 06:33N 40°45' W 074°01'0 0.0
2015-Aug-22 05:33N 40°45' W 074°01'0 0.0
2015-Aug-22 04:33N 40°45' W 074°01'0 0.0
2015-Aug-22 03:33N 40°45' W 074°01'0 0.0
2015-Aug-22 02:33N 40°45' W 074°01'0 0.0
2015-Aug-22 01:33N 40°45' W 074°01'4 4.1
2015-Aug-22 00:33N 40°41' W 074°02'5 5.3
2015-Aug-21 23:33N 40°46' W 074°00'1 1.2
2015-Aug-21 22:33N 40°45' W 074°01'0 0.0
2015-Aug-21 21:33N 40°45' W 074°01'0 0.0
2015-Aug-21 20:33N 40°45' W 074°01'0 0.0
2015-Aug-21 19:34N 40°45' W 074°01'1 0.8
2015-Aug-21 18:33N 40°46' W 074°01'0 0.4
2015-Aug-21 17:34N 40°45' W 074°01'2 2.0
2015-Aug-21 16:33N 40°44' W 074°01'2 2.1
2015-Aug-21 15:33N 40°46' W 074°01'1 0.8
2015-Aug-21 14:33N 40°45' W 074°01'0 0.0
2015-Aug-21 13:34N 40°45' W 074°01'0 0.0
2015-Aug-21 01:33N 40°45' W 074°01'4 3.7
2015-Aug-21 00:34N 40°41' W 074°02'4 4.2
2015-Aug-20 23:33N 40°46' W 074°01'1 0.8
2015-Aug-20 22:33N 40°45' W 074°01'0 0.0
2015-Aug-20 21:33N 40°45' W 074°01'0 0.0
2015-Aug-20 20:34N 40°45' W 074°01'0 0.0
2015-Aug-20 19:34N 40°45' W 074°01'0 0.0
2015-Aug-20 18:33N 40°45' W 074°01'1 0.8
2015-Aug-20 17:34N 40°44' W 074°01'2 1.9
2015-Aug-20 16:34N 40°42' W 074°02'3 3.2
2015-Aug-20 15:34N 40°46' W 074°01'1 0.0
2015-Aug-19 19:21N 40°45' W 074°01'1 1.0
2015-Aug-19 18:34N 40°46' W 074°01'  

Dump ship's entire track history